sensor_id;sensor_type;location;lat;lon;timestamp;temperature;humidity
68801;SHT31;55784;50.734;7.086;2022-08-07T00:00:19;14.67;62.83
68801;SHT31;55784;50.734;7.086;2022-08-07T00:02:44;14.63;62.99
68801;SHT31;55784;50.734;7.086;2022-08-07T00:05:10;14.60;62.98
68801;SHT31;55784;50.734;7.086;2022-08-07T00:07:35;14.53;63.20
68801;SHT31;55784;50.734;7.086;2022-08-07T00:10:01;14.53;63.31
68801;SHT31;55784;50.734;7.086;2022-08-07T00:12:26;14.54;63.33
68801;SHT31;55784;50.734;7.086;2022-08-07T00:14:51;14.51;63.59
68801;SHT31;55784;50.734;7.086;2022-08-07T00:17:16;14.45;63.65
68801;SHT31;55784;50.734;7.086;2022-08-07T00:19:42;14.37;63.74
68801;SHT31;55784;50.734;7.086;2022-08-07T00:22:07;14.34;63.95
68801;SHT31;55784;50.734;7.086;2022-08-07T00:24:33;14.34;63.95
68801;SHT31;55784;50.734;7.086;2022-08-07T00:26:58;14.34;64.05
68801;SHT31;55784;50.734;7.086;2022-08-07T00:29:23;14.29;64.11
68801;SHT31;55784;50.734;7.086;2022-08-07T00:31:51;14.21;64.31
68801;SHT31;55784;50.734;7.086;2022-08-07T00:34:17;14.21;64.35
68801;SHT31;55784;50.734;7.086;2022-08-07T00:36:43;14.17;64.45
68801;SHT31;55784;50.734;7.086;2022-08-07T00:39:09;14.14;64.59
68801;SHT31;55784;50.734;7.086;2022-08-07T00:41:34;14.08;64.77
68801;SHT31;55784;50.734;7.086;2022-08-07T00:43:59;14.12;64.85
68801;SHT31;55784;50.734;7.086;2022-08-07T00:46:25;14.12;64.68
68801;SHT31;55784;50.734;7.086;2022-08-07T00:48:50;14.06;64.87
68801;SHT31;55784;50.734;7.086;2022-08-07T00:51:16;14.00;65.12
68801;SHT31;55784;50.734;7.086;2022-08-07T00:53:41;13.95;65.25
68801;SHT31;55784;50.734;7.086;2022-08-07T00:56:07;13.93;65.33
68801;SHT31;55784;50.734;7.086;2022-08-07T00:58:35;13.87;65.50
68801;SHT31;55784;50.734;7.086;2022-08-07T01:01:01;13.87;65.52
68801;SHT31;55784;50.734;7.086;2022-08-07T01:03:26;13.85;65.61
68801;SHT31;55784;50.734;7.086;2022-08-07T01:05:54;13.76;65.93
68801;SHT31;55784;50.734;7.086;2022-08-07T01:08:20;13.72;66.15
68801;SHT31;55784;50.734;7.086;2022-08-07T01:10:46;13.63;66.30
68801;SHT31;55784;50.734;7.086;2022-08-07T01:13:11;13.65;66.35
68801;SHT31;55784;50.734;7.086;2022-08-07T01:15:36;13.61;66.47
68801;SHT31;55784;50.734;7.086;2022-08-07T01:18:02;13.57;66.74
68801;SHT31;55784;50.734;7.086;2022-08-07T01:20:33;13.58;66.78
68801;SHT31;55784;50.734;7.086;2022-08-07T01:23:00;13.58;66.79
68801;SHT31;55784;50.734;7.086;2022-08-07T01:25:26;13.55;66.76
68801;SHT31;55784;50.734;7.086;2022-08-07T01:27:54;13.52;67.22
68801;SHT31;55784;50.734;7.086;2022-08-07T01:30:19;13.49;66.96
68801;SHT31;55784;50.734;7.086;2022-08-07T01:32:45;13.51;66.99
68801;SHT31;55784;50.734;7.086;2022-08-07T01:35:10;13.48;67.09
68801;SHT31;55784;50.734;7.086;2022-08-07T01:37:36;13.47;67.24
68801;SHT31;55784;50.734;7.086;2022-08-07T01:40:03;13.39;67.54
68801;SHT31;55784;50.734;7.086;2022-08-07T01:42:29;13.39;67.77
68801;SHT31;55784;50.734;7.086;2022-08-07T01:44:55;13.34;67.95
68801;SHT31;55784;50.734;7.086;2022-08-07T01:47:21;13.29;68.05
68801;SHT31;55784;50.734;7.086;2022-08-07T01:49:46;13.32;68.14
68801;SHT31;55784;50.734;7.086;2022-08-07T01:52:12;13.29;68.13
68801;SHT31;55784;50.734;7.086;2022-08-07T01:54:39;13.32;68.14
68801;SHT31;55784;50.734;7.086;2022-08-07T01:57:13;13.28;68.20
68801;SHT31;55784;50.734;7.086;2022-08-07T01:59:53;13.22;68.30
68801;SHT31;55784;50.734;7.086;2022-08-07T02:02:24;13.18;68.24
68801;SHT31;55784;50.734;7.086;2022-08-07T02:05:01;13.17;68.40
68801;SHT31;55784;50.734;7.086;2022-08-07T02:07:31;13.11;68.55
68801;SHT31;55784;50.734;7.086;2022-08-07T02:09:57;13.11;68.77
68801;SHT31;55784;50.734;7.086;2022-08-07T02:12:26;13.10;68.74
68801;SHT31;55784;50.734;7.086;2022-08-07T02:14:55;13.07;68.79
68801;SHT31;55784;50.734;7.086;2022-08-07T02:17:22;13.15;68.79
68801;SHT31;55784;50.734;7.086;2022-08-07T02:19:48;13.10;69.04
68801;SHT31;55784;50.734;7.086;2022-08-07T02:22:15;13.08;69.12
68801;SHT31;55784;50.734;7.086;2022-08-07T02:24:45;13.01;69.40
68801;SHT31;55784;50.734;7.086;2022-08-07T02:27:13;13.03;69.46
68801;SHT31;55784;50.734;7.086;2022-08-07T02:29:41;12.98;69.62
68801;SHT31;55784;50.734;7.086;2022-08-07T02:32:08;12.94;69.78
68801;SHT31;55784;50.734;7.086;2022-08-07T02:34:36;12.97;69.75
68801;SHT31;55784;50.734;7.086;2022-08-07T02:37:02;12.95;69.84
68801;SHT31;55784;50.734;7.086;2022-08-07T02:39:31;12.90;69.95
68801;SHT31;55784;50.734;7.086;2022-08-07T02:41:58;12.93;69.93
68801;SHT31;55784;50.734;7.086;2022-08-07T02:44:24;12.90;69.94
68801;SHT31;55784;50.734;7.086;2022-08-07T02:46:52;12.81;70.07
68801;SHT31;55784;50.734;7.086;2022-08-07T02:49:19;12.79;70.08
68801;SHT31;55784;50.734;7.086;2022-08-07T02:51:46;12.86;70.03
68801;SHT31;55784;50.734;7.086;2022-08-07T02:54:13;12.84;70.02
68801;SHT31;55784;50.734;7.086;2022-08-07T02:56:40;12.76;70.23
68801;SHT31;55784;50.734;7.086;2022-08-07T02:59:09;12.74;70.38
68801;SHT31;55784;50.734;7.086;2022-08-07T03:01:37;12.70;70.47
68801;SHT31;55784;50.734;7.086;2022-08-07T03:04:08;12.67;70.75
68801;SHT31;55784;50.734;7.086;2022-08-07T03:06:35;12.66;70.97
68801;SHT31;55784;50.734;7.086;2022-08-07T03:09:05;12.64;70.98
68801;SHT31;55784;50.734;7.086;2022-08-07T03:11:33;12.59;71.11
68801;SHT31;55784;50.734;7.086;2022-08-07T03:14:01;12.54;71.32
68801;SHT31;55784;50.734;7.086;2022-08-07T03:16:28;12.52;71.24
68801;SHT31;55784;50.734;7.086;2022-08-07T03:18:54;12.50;71.30
68801;SHT31;55784;50.734;7.086;2022-08-07T03:21:20;12.47;71.37
68801;SHT31;55784;50.734;7.086;2022-08-07T03:23:47;12.43;71.73
68801;SHT31;55784;50.734;7.086;2022-08-07T03:26:17;12.42;71.80
68801;SHT31;55784;50.734;7.086;2022-08-07T03:28:45;12.37;71.92
68801;SHT31;55784;50.734;7.086;2022-08-07T03:31:11;12.34;71.85
68801;SHT31;55784;50.734;7.086;2022-08-07T03:33:45;12.34;71.88
68801;SHT31;55784;50.734;7.086;2022-08-07T03:36:12;12.33;71.93
68801;SHT31;55784;50.734;7.086;2022-08-07T03:38:41;12.30;72.18
68801;SHT31;55784;50.734;7.086;2022-08-07T03:41:08;12.28;72.40
68801;SHT31;55784;50.734;7.086;2022-08-07T03:43:36;12.23;72.32
68801;SHT31;55784;50.734;7.086;2022-08-07T03:46:02;12.25;72.55
68801;SHT31;55784;50.734;7.086;2022-08-07T03:48:31;12.22;72.53
68801;SHT31;55784;50.734;7.086;2022-08-07T03:50:57;12.18;72.61
68801;SHT31;55784;50.734;7.086;2022-08-07T03:53:23;12.15;72.63
68801;SHT31;55784;50.734;7.086;2022-08-07T03:55:49;12.15;72.64
68801;SHT31;55784;50.734;7.086;2022-08-07T03:58:17;12.12;72.73
68801;SHT31;55784;50.734;7.086;2022-08-07T04:00:44;12.13;72.74
68801;SHT31;55784;50.734;7.086;2022-08-07T04:03:11;12.15;72.65
68801;SHT31;55784;50.734;7.086;2022-08-07T04:05:36;12.18;72.72
68801;SHT31;55784;50.734;7.086;2022-08-07T04:08:03;12.15;72.85
68801;SHT31;55784;50.734;7.086;2022-08-07T04:10:29;12.13;72.94
68801;SHT31;55784;50.734;7.086;2022-08-07T04:12:55;12.18;72.71
68801;SHT31;55784;50.734;7.086;2022-08-07T04:15:21;12.18;72.77
68801;SHT31;55784;50.734;7.086;2022-08-07T04:17:46;12.18;72.76
68801;SHT31;55784;50.734;7.086;2022-08-07T04:20:14;12.25;72.57
68801;SHT31;55784;50.734;7.086;2022-08-07T04:22:41;12.47;71.94
68801;SHT31;55784;50.734;7.086;2022-08-07T04:25:08;12.73;71.18
68801;SHT31;55784;50.734;7.086;2022-08-07T04:27:34;12.94;70.39
68801;SHT31;55784;50.734;7.086;2022-08-07T04:30:00;12.88;70.28
68801;SHT31;55784;50.734;7.086;2022-08-07T04:32:25;12.77;70.69
68801;SHT31;55784;50.734;7.086;2022-08-07T04:34:51;12.67;70.80
68801;SHT31;55784;50.734;7.086;2022-08-07T04:37:17;12.63;70.96
68801;SHT31;55784;50.734;7.086;2022-08-07T04:39:43;12.60;71.07
68801;SHT31;55784;50.734;7.086;2022-08-07T04:42:08;12.79;70.59
68801;SHT31;55784;50.734;7.086;2022-08-07T04:44:34;13.14;69.66
68801;SHT31;55784;50.734;7.086;2022-08-07T04:47:17;13.65;67.86
68801;SHT31;55784;50.734;7.086;2022-08-07T04:50:11;13.89;66.91
68801;SHT31;55784;50.734;7.086;2022-08-07T04:52:45;14.38;65.70
68801;SHT31;55784;50.734;7.086;2022-08-07T04:55:23;14.84;63.93
68801;SHT31;55784;50.734;7.086;2022-08-07T04:58:13;15.32;62.75
68801;SHT31;55784;50.734;7.086;2022-08-07T05:03:28;15.94;60.28
68801;SHT31;55784;50.734;7.086;2022-08-07T05:05:59;16.07;59.73
68801;SHT31;55784;50.734;7.086;2022-08-07T05:08:45;16.35;59.16
68801;SHT31;55784;50.734;7.086;2022-08-07T05:11:17;16.54;58.35
68801;SHT31;55784;50.734;7.086;2022-08-07T05:14:10;16.85;57.56
68801;SHT31;55784;50.734;7.086;2022-08-07T05:16:37;17.10;56.76
68801;SHT31;55784;50.734;7.086;2022-08-07T05:19:07;17.36;56.08
68801;SHT31;55784;50.734;7.086;2022-08-07T05:21:34;17.50;55.50
68801;SHT31;55784;50.734;7.086;2022-08-07T05:24:03;17.69;55.32
68801;SHT31;55784;50.734;7.086;2022-08-07T05:26:32;17.90;54.65
68801;SHT31;55784;50.734;7.086;2022-08-07T05:29:00;18.04;54.06
68801;SHT31;55784;50.734;7.086;2022-08-07T05:31:29;18.04;54.02
68801;SHT31;55784;50.734;7.086;2022-08-07T05:33:58;17.94;54.11
68801;SHT31;55784;50.734;7.086;2022-08-07T05:36:24;17.94;54.25
68801;SHT31;55784;50.734;7.086;2022-08-07T05:38:52;17.93;54.18
68801;SHT31;55784;50.734;7.086;2022-08-07T05:41:17;18.05;54.13
68801;SHT31;55784;50.734;7.086;2022-08-07T05:43:45;17.77;54.54
68801;SHT31;55784;50.734;7.086;2022-08-07T05:46:12;17.74;54.86
68801;SHT31;55784;50.734;7.086;2022-08-07T05:48:37;17.69;55.17
68801;SHT31;55784;50.734;7.086;2022-08-07T05:51:05;17.60;55.48
68801;SHT31;55784;50.734;7.086;2022-08-07T05:53:31;17.75;55.21
68801;SHT31;55784;50.734;7.086;2022-08-07T05:55:57;17.97;54.82
68801;SHT31;55784;50.734;7.086;2022-08-07T05:58:23;18.00;54.48
68801;SHT31;55784;50.734;7.086;2022-08-07T06:00:50;18.08;54.34
68801;SHT31;55784;50.734;7.086;2022-08-07T06:03:18;18.06;54.40
68801;SHT31;55784;50.734;7.086;2022-08-07T06:05:45;17.84;54.93
68801;SHT31;55784;50.734;7.086;2022-08-07T06:08:11;17.94;54.93
68801;SHT31;55784;50.734;7.086;2022-08-07T06:10:37;17.85;55.08
68801;SHT31;55784;50.734;7.086;2022-08-07T06:13:03;17.81;55.24
68801;SHT31;55784;50.734;7.086;2022-08-07T06:15:29;17.71;55.52
68801;SHT31;55784;50.734;7.086;2022-08-07T06:17:55;17.77;55.41
68801;SHT31;55784;50.734;7.086;2022-08-07T06:20:23;17.77;55.60
68801;SHT31;55784;50.734;7.086;2022-08-07T06:22:49;17.73;55.72
68801;SHT31;55784;50.734;7.086;2022-08-07T06:25:16;17.77;55.70
68801;SHT31;55784;50.734;7.086;2022-08-07T06:27:41;17.63;56.12
68801;SHT31;55784;50.734;7.086;2022-08-07T06:30:07;17.54;56.18
68801;SHT31;55784;50.734;7.086;2022-08-07T06:32:33;17.59;55.85
68801;SHT31;55784;50.734;7.086;2022-08-07T06:34:59;17.44;56.26
68801;SHT31;55784;50.734;7.086;2022-08-07T06:37:24;17.44;56.18
68801;SHT31;55784;50.734;7.086;2022-08-07T06:39:50;17.46;56.19
68801;SHT31;55784;50.734;7.086;2022-08-07T06:42:20;17.42;56.26
68801;SHT31;55784;50.734;7.086;2022-08-07T06:44:48;17.39;56.37
68801;SHT31;55784;50.734;7.086;2022-08-07T06:47:14;17.37;56.39
68801;SHT31;55784;50.734;7.086;2022-08-07T06:49:39;17.33;56.34
68801;SHT31;55784;50.734;7.086;2022-08-07T06:52:07;17.20;56.89
68801;SHT31;55784;50.734;7.086;2022-08-07T06:54:33;17.20;56.84
68801;SHT31;55784;50.734;7.086;2022-08-07T06:56:59;17.18;57.14
68801;SHT31;55784;50.734;7.086;2022-08-07T06:59:26;17.02;57.57
68801;SHT31;55784;50.734;7.086;2022-08-07T07:01:54;16.96;57.89
68801;SHT31;55784;50.734;7.086;2022-08-07T07:04:22;16.98;57.88
68801;SHT31;55784;50.734;7.086;2022-08-07T07:06:47;17.06;57.81
68801;SHT31;55784;50.734;7.086;2022-08-07T07:09:28;17.09;57.57
68801;SHT31;55784;50.734;7.086;2022-08-07T07:17:21;17.05;57.31
68801;SHT31;55784;50.734;7.086;2022-08-07T07:19:52;17.16;56.88
68801;SHT31;55784;50.734;7.086;2022-08-07T07:22:18;17.06;57.07
68801;SHT31;55784;50.734;7.086;2022-08-07T07:24:45;17.05;57.54
68801;SHT31;55784;50.734;7.086;2022-08-07T07:27:13;17.22;57.00
68801;SHT31;55784;50.734;7.086;2022-08-07T07:29:45;17.33;56.54
68801;SHT31;55784;50.734;7.086;2022-08-07T07:32:13;17.44;56.21
68801;SHT31;55784;50.734;7.086;2022-08-07T07:34:43;17.57;55.78
68801;SHT31;55784;50.734;7.086;2022-08-07T07:37:10;17.67;55.29
68801;SHT31;55784;50.734;7.086;2022-08-07T07:39:37;17.63;55.45
68801;SHT31;55784;50.734;7.086;2022-08-07T07:42:04;17.70;54.83
68801;SHT31;55784;50.734;7.086;2022-08-07T07:44:30;17.75;54.67
68801;SHT31;55784;50.734;7.086;2022-08-07T07:46:56;17.78;54.53
68801;SHT31;55784;50.734;7.086;2022-08-07T07:49:25;17.83;53.77
68801;SHT31;55784;50.734;7.086;2022-08-07T07:51:55;18.00;52.53
68801;SHT31;55784;50.734;7.086;2022-08-07T07:54:21;18.24;51.66
68801;SHT31;55784;50.734;7.086;2022-08-07T07:56:49;18.38;50.90
68801;SHT31;55784;50.734;7.086;2022-08-07T07:59:17;18.24;51.19
68801;SHT31;55784;50.734;7.086;2022-08-07T08:01:45;18.32;51.16
68801;SHT31;55784;50.734;7.086;2022-08-07T08:04:12;18.45;50.37
68801;SHT31;55784;50.734;7.086;2022-08-07T08:06:40;18.60;49.67
68801;SHT31;55784;50.734;7.086;2022-08-07T08:09:08;18.68;49.28
68801;SHT31;55784;50.734;7.086;2022-08-07T08:11:34;18.77;49.71
68801;SHT31;55784;50.734;7.086;2022-08-07T08:14:00;18.95;49.35
68801;SHT31;55784;50.734;7.086;2022-08-07T08:16:44;19.04;48.79
68801;SHT31;55784;50.734;7.086;2022-08-07T08:19:16;19.14;48.89
68801;SHT31;55784;50.734;7.086;2022-08-07T08:21:46;19.14;48.43
68801;SHT31;55784;50.734;7.086;2022-08-07T08:24:36;19.30;48.46
68801;SHT31;55784;50.734;7.086;2022-08-07T08:27:21;19.41;48.12
68801;SHT31;55784;50.734;7.086;2022-08-07T08:29:55;19.53;47.65
68801;SHT31;55784;50.734;7.086;2022-08-07T08:32:24;19.67;47.58
68801;SHT31;55784;50.734;7.086;2022-08-07T08:34:50;19.77;47.23
68801;SHT31;55784;50.734;7.086;2022-08-07T08:37:18;19.78;47.09
68801;SHT31;55784;50.734;7.086;2022-08-07T08:39:44;19.81;47.08
68801;SHT31;55784;50.734;7.086;2022-08-07T08:42:19;19.46;47.82
68801;SHT31;55784;50.734;7.086;2022-08-07T08:44:52;19.46;48.19
68801;SHT31;55784;50.734;7.086;2022-08-07T08:47:26;19.44;48.12
68801;SHT31;55784;50.734;7.086;2022-08-07T08:50:08;19.60;48.16
68801;SHT31;55784;50.734;7.086;2022-08-07T08:55:43;19.83;47.65
68801;SHT31;55784;50.734;7.086;2022-08-07T08:58:18;19.79;47.20
68801;SHT31;55784;50.734;7.086;2022-08-07T09:03:57;20.01;45.91
68801;SHT31;55784;50.734;7.086;2022-08-07T09:12:07;20.09;45.67
68801;SHT31;55784;50.734;7.086;2022-08-07T09:14:39;20.23;45.12
68801;SHT31;55784;50.734;7.086;2022-08-07T09:17:18;20.40;44.60
68801;SHT31;55784;50.734;7.086;2022-08-07T09:20:00;20.44;43.79
68801;SHT31;55784;50.734;7.086;2022-08-07T09:25:27;20.47;45.50
68801;SHT31;55784;50.734;7.086;2022-08-07T09:28:02;20.69;45.23
68801;SHT31;55784;50.734;7.086;2022-08-07T09:30:52;20.77;44.96
68801;SHT31;55784;50.734;7.086;2022-08-07T09:36:14;21.00;43.15
68801;SHT31;55784;50.734;7.086;2022-08-07T09:41:45;21.06;41.95
68801;SHT31;55784;50.734;7.086;2022-08-07T09:44:43;21.15;42.42
68801;SHT31;55784;50.734;7.086;2022-08-07T09:47:18;21.30;42.51
68801;SHT31;55784;50.734;7.086;2022-08-07T09:55:24;21.58;42.06
68801;SHT31;55784;50.734;7.086;2022-08-07T09:58:12;21.57;41.42
68801;SHT31;55784;50.734;7.086;2022-08-07T10:06:48;21.82;40.25
68801;SHT31;55784;50.734;7.086;2022-08-07T10:09:43;21.92;40.50
68801;SHT31;55784;50.734;7.086;2022-08-07T10:12:27;22.13;40.89
68801;SHT31;55784;50.734;7.086;2022-08-07T10:23:11;22.21;38.66
68801;SHT31;55784;50.734;7.086;2022-08-07T10:26:22;22.16;38.67
68801;SHT31;55784;50.734;7.086;2022-08-07T10:31:51;22.49;38.92
68801;SHT31;55784;50.734;7.086;2022-08-07T10:34:32;22.61;38.78
68801;SHT31;55784;50.734;7.086;2022-08-07T10:40:02;22.50;37.81
68801;SHT31;55784;50.734;7.086;2022-08-07T10:45:26;22.64;36.39
68801;SHT31;55784;50.734;7.086;2022-08-07T10:48:24;22.60;37.19
68801;SHT31;55784;50.734;7.086;2022-08-07T10:50:55;22.88;37.22
68801;SHT31;55784;50.734;7.086;2022-08-07T10:56:35;22.92;36.75
68801;SHT31;55784;50.734;7.086;2022-08-07T10:59:07;22.84;37.26
68801;SHT31;55784;50.734;7.086;2022-08-07T11:09:44;23.29;36.49
68801;SHT31;55784;50.734;7.086;2022-08-07T11:12:22;23.48;36.67
68801;SHT31;55784;50.734;7.086;2022-08-07T11:14:55;23.37;36.21
68801;SHT31;55784;50.734;7.086;2022-08-07T11:17:58;23.53;36.83
68801;SHT31;55784;50.734;7.086;2022-08-07T11:20:40;23.62;36.29
68801;SHT31;55784;50.734;7.086;2022-08-07T11:23:23;23.59;36.00
68801;SHT31;55784;50.734;7.086;2022-08-07T11:29:10;23.69;36.05
68801;SHT31;55784;50.734;7.086;2022-08-07T11:31:52;23.77;35.41
68801;SHT31;55784;50.734;7.086;2022-08-07T11:34:27;23.63;35.52
68801;SHT31;55784;50.734;7.086;2022-08-07T11:42:59;23.85;35.33
68801;SHT31;55784;50.734;7.086;2022-08-07T11:45:33;23.95;35.16
68801;SHT31;55784;50.734;7.086;2022-08-07T11:48:26;23.87;35.03
68801;SHT31;55784;50.734;7.086;2022-08-07T11:51:34;24.09;34.72
68801;SHT31;55784;50.734;7.086;2022-08-07T11:54:10;24.10;34.86
68801;SHT31;55784;50.734;7.086;2022-08-07T12:07:32;24.16;34.98
68801;SHT31;55784;50.734;7.086;2022-08-07T12:10:03;24.31;35.10
68801;SHT31;55784;50.734;7.086;2022-08-07T12:12:37;24.12;35.02
68801;SHT31;55784;50.734;7.086;2022-08-07T12:15:36;24.12;35.03
68801;SHT31;55784;50.734;7.086;2022-08-07T12:18:21;23.87;35.35
68801;SHT31;55784;50.734;7.086;2022-08-07T12:23:45;24.27;35.10
68801;SHT31;55784;50.734;7.086;2022-08-07T12:29:28;24.24;34.81
68801;SHT31;55784;50.734;7.086;2022-08-07T12:32:04;24.20;34.81
68801;SHT31;55784;50.734;7.086;2022-08-07T12:34:35;24.37;34.37
68801;SHT31;55784;50.734;7.086;2022-08-07T12:37:01;24.46;34.50
68801;SHT31;55784;50.734;7.086;2022-08-07T12:39:29;24.56;34.86
68801;SHT31;55784;50.734;7.086;2022-08-07T12:41:55;24.53;35.82
68801;SHT31;55784;50.734;7.086;2022-08-07T12:44:26;24.28;34.63
68801;SHT31;55784;50.734;7.086;2022-08-07T12:49:52;24.46;34.85
68801;SHT31;55784;50.734;7.086;2022-08-07T12:55:41;24.81;34.70
68801;SHT31;55784;50.734;7.086;2022-08-07T12:58:11;24.60;34.32
68801;SHT31;55784;50.734;7.086;2022-08-07T13:01:07;24.89;34.51
68801;SHT31;55784;50.734;7.086;2022-08-07T13:09:00;24.75;33.75
68801;SHT31;55784;50.734;7.086;2022-08-07T13:11:57;25.11;33.81
68801;SHT31;55784;50.734;7.086;2022-08-07T13:14:47;25.11;33.67
68801;SHT31;55784;50.734;7.086;2022-08-07T13:17:29;24.99;33.82
68801;SHT31;55784;50.734;7.086;2022-08-07T13:20:08;25.01;33.94
68801;SHT31;55784;50.734;7.086;2022-08-07T13:22:50;25.18;33.95
68801;SHT31;55784;50.734;7.086;2022-08-07T13:25:25;25.15;33.67
68801;SHT31;55784;50.734;7.086;2022-08-07T13:27:57;25.02;33.92
68801;SHT31;55784;50.734;7.086;2022-08-07T13:30:26;25.20;33.34
68801;SHT31;55784;50.734;7.086;2022-08-07T13:36:07;25.33;33.37
68801;SHT31;55784;50.734;7.086;2022-08-07T13:41:43;25.60;33.12
68801;SHT31;55784;50.734;7.086;2022-08-07T13:44:15;25.46;33.14
68801;SHT31;55784;50.734;7.086;2022-08-07T13:46:45;25.02;33.67
68801;SHT31;55784;50.734;7.086;2022-08-07T13:49:12;25.16;33.62
68801;SHT31;55784;50.734;7.086;2022-08-07T13:51:40;25.07;33.60
68801;SHT31;55784;50.734;7.086;2022-08-07T13:54:11;25.26;33.61
68801;SHT31;55784;50.734;7.086;2022-08-07T13:56:38;25.19;33.79
68801;SHT31;55784;50.734;7.086;2022-08-07T13:59:19;25.12;33.84
68801;SHT31;55784;50.734;7.086;2022-08-07T14:01:52;25.23;34.25
68801;SHT31;55784;50.734;7.086;2022-08-07T14:04:19;25.40;33.71
68801;SHT31;55784;50.734;7.086;2022-08-07T14:06:49;25.53;33.53
68801;SHT31;55784;50.734;7.086;2022-08-07T14:09:28;25.59;33.35
68801;SHT31;55784;50.734;7.086;2022-08-07T14:11:59;25.46;33.70
68801;SHT31;55784;50.734;7.086;2022-08-07T14:14:29;25.38;33.70
68801;SHT31;55784;50.734;7.086;2022-08-07T14:16:58;25.29;33.72
68801;SHT31;55784;50.734;7.086;2022-08-07T14:19:34;25.47;33.41
68801;SHT31;55784;50.734;7.086;2022-08-07T14:22:00;25.63;33.69
68801;SHT31;55784;50.734;7.086;2022-08-07T14:24:40;25.43;33.39
68801;SHT31;55784;50.734;7.086;2022-08-07T14:27:08;25.43;33.55
68801;SHT31;55784;50.734;7.086;2022-08-07T14:29:38;25.69;33.39
68801;SHT31;55784;50.734;7.086;2022-08-07T14:32:08;25.72;33.08
68801;SHT31;55784;50.734;7.086;2022-08-07T14:34:38;25.58;33.34
68801;SHT31;55784;50.734;7.086;2022-08-07T14:37:08;25.73;33.36
68801;SHT31;55784;50.734;7.086;2022-08-07T14:39:39;25.72;33.21
68801;SHT31;55784;50.734;7.086;2022-08-07T14:42:10;25.90;33.38
68801;SHT31;55784;50.734;7.086;2022-08-07T14:44:46;25.80;32.99
68801;SHT31;55784;50.734;7.086;2022-08-07T14:47:15;25.73;32.97
68801;SHT31;55784;50.734;7.086;2022-08-07T14:49:42;25.50;33.37
68801;SHT31;55784;50.734;7.086;2022-08-07T14:52:09;25.60;33.29
68801;SHT31;55784;50.734;7.086;2022-08-07T14:54:38;25.96;33.06
68801;SHT31;55784;50.734;7.086;2022-08-07T14:57:06;26.07;32.94
68801;SHT31;55784;50.734;7.086;2022-08-07T14:59:35;25.91;32.85
68801;SHT31;55784;50.734;7.086;2022-08-07T15:02:17;25.74;32.95
68801;SHT31;55784;50.734;7.086;2022-08-07T15:04:46;25.89;32.68
68801;SHT31;55784;50.734;7.086;2022-08-07T15:07:18;25.76;33.05
68801;SHT31;55784;50.734;7.086;2022-08-07T15:09:47;25.90;32.97
68801;SHT31;55784;50.734;7.086;2022-08-07T15:12:17;25.89;32.79
68801;SHT31;55784;50.734;7.086;2022-08-07T15:14:52;26.16;33.24
68801;SHT31;55784;50.734;7.086;2022-08-07T15:17:29;26.13;32.49
68801;SHT31;55784;50.734;7.086;2022-08-07T15:20:03;26.03;32.56
68801;SHT31;55784;50.734;7.086;2022-08-07T15:22:30;26.18;32.26
68801;SHT31;55784;50.734;7.086;2022-08-07T15:24:58;26.18;31.97
68801;SHT31;55784;50.734;7.086;2022-08-07T15:27:27;26.30;31.90
68801;SHT31;55784;50.734;7.086;2022-08-07T15:29:59;26.27;31.71
68801;SHT31;55784;50.734;7.086;2022-08-07T15:32:26;26.14;32.24
68801;SHT31;55784;50.734;7.086;2022-08-07T15:34:53;26.24;31.95
68801;SHT31;55784;50.734;7.086;2022-08-07T15:37:24;25.96;31.91
68801;SHT31;55784;50.734;7.086;2022-08-07T15:39:53;25.96;31.86
68801;SHT31;55784;50.734;7.086;2022-08-07T15:42:36;26.05;32.01
68801;SHT31;55784;50.734;7.086;2022-08-07T15:45:14;26.10;32.49
68801;SHT31;55784;50.734;7.086;2022-08-07T15:47:43;26.10;31.85
68801;SHT31;55784;50.734;7.086;2022-08-07T15:50:14;26.10;31.79
68801;SHT31;55784;50.734;7.086;2022-08-07T15:52:41;25.98;31.72
68801;SHT31;55784;50.734;7.086;2022-08-07T15:55:10;26.07;31.86
68801;SHT31;55784;50.734;7.086;2022-08-07T15:57:43;25.97;32.11
68801;SHT31;55784;50.734;7.086;2022-08-07T16:00:10;26.01;31.97
68801;SHT31;55784;50.734;7.086;2022-08-07T16:02:41;26.20;32.00
68801;SHT31;55784;50.734;7.086;2022-08-07T16:05:18;26.13;31.92
68801;SHT31;55784;50.734;7.086;2022-08-07T16:07:52;26.05;31.88
68801;SHT31;55784;50.734;7.086;2022-08-07T16:10:22;26.16;32.57
68801;SHT31;55784;50.734;7.086;2022-08-07T16:19:14;25.96;32.02
68801;SHT31;55784;50.734;7.086;2022-08-07T16:24:51;26.16;32.30
68801;SHT31;55784;50.734;7.086;2022-08-07T16:27:30;26.08;32.07
68801;SHT31;55784;50.734;7.086;2022-08-07T16:30:09;26.11;32.43
68801;SHT31;55784;50.734;7.086;2022-08-07T16:32:41;26.16;32.47
68801;SHT31;55784;50.734;7.086;2022-08-07T16:35:16;26.20;32.40
68801;SHT31;55784;50.734;7.086;2022-08-07T16:46:56;25.97;32.23
68801;SHT31;55784;50.734;7.086;2022-08-07T16:49:39;25.94;32.58
68801;SHT31;55784;50.734;7.086;2022-08-07T16:52:34;26.05;32.33
68801;SHT31;55784;50.734;7.086;2022-08-07T16:55:29;26.03;32.32
68801;SHT31;55784;50.734;7.086;2022-08-07T16:58:25;25.93;32.24
68801;SHT31;55784;50.734;7.086;2022-08-07T17:01:11;25.94;32.66
68801;SHT31;55784;50.734;7.086;2022-08-07T17:04:09;25.97;32.42
68801;SHT31;55784;50.734;7.086;2022-08-07T17:06:56;25.91;32.63
68801;SHT31;55784;50.734;7.086;2022-08-07T17:09:35;25.94;32.56
68801;SHT31;55784;50.734;7.086;2022-08-07T17:12:06;26.01;32.61
68801;SHT31;55784;50.734;7.086;2022-08-07T17:15:01;26.07;32.68
68801;SHT31;55784;50.734;7.086;2022-08-07T17:17:43;26.08;32.48
68801;SHT31;55784;50.734;7.086;2022-08-07T17:20:33;26.07;32.66
68801;SHT31;55784;50.734;7.086;2022-08-07T17:26:17;25.96;32.79
68801;SHT31;55784;50.734;7.086;2022-08-07T17:31:33;25.82;33.12
68801;SHT31;55784;50.734;7.086;2022-08-07T17:34:07;25.87;33.29
68801;SHT31;55784;50.734;7.086;2022-08-07T17:36:34;25.80;33.34
68801;SHT31;55784;50.734;7.086;2022-08-07T17:39:05;25.83;33.23
68801;SHT31;55784;50.734;7.086;2022-08-07T17:41:49;25.84;33.39
68801;SHT31;55784;50.734;7.086;2022-08-07T17:44:22;25.77;33.60
68801;SHT31;55784;50.734;7.086;2022-08-07T17:49:33;25.65;33.37
68801;SHT31;55784;50.734;7.086;2022-08-07T17:52:12;25.62;33.22
68801;SHT31;55784;50.734;7.086;2022-08-07T17:54:47;25.54;33.40
68801;SHT31;55784;50.734;7.086;2022-08-07T17:57:37;25.43;33.70
68801;SHT31;55784;50.734;7.086;2022-08-07T18:00:07;25.33;33.83
68801;SHT31;55784;50.734;7.086;2022-08-07T18:02:40;25.29;33.89
68801;SHT31;55784;50.734;7.086;2022-08-07T18:05:22;25.20;34.01
68801;SHT31;55784;50.734;7.086;2022-08-07T18:08:16;25.15;34.25
68801;SHT31;55784;50.734;7.086;2022-08-07T18:10:51;25.09;34.45
68801;SHT31;55784;50.734;7.086;2022-08-07T18:18:48;24.85;34.80
68801;SHT31;55784;50.734;7.086;2022-08-07T18:21:21;24.79;35.01